sensor_id;sensor_type;location;lat;lon;timestamp;temperature;humidity
44695;DHT22;32845;59.422;17.930;2023-03-25T00:02:24;3.40;99.90
44695;DHT22;32845;59.422;17.930;2023-03-25T00:06:56;3.20;99.90
44695;DHT22;32845;59.422;17.930;2023-03-25T00:11:27;3.00;99.90
44695;DHT22;32845;59.422;17.930;2023-03-25T00:15:58;2.90;99.90
44695;DHT22;32845;59.422;17.930;2023-03-25T00:20:29;2.80;99.90
44695;DHT22;32845;59.422;17.930;2023-03-25T00:25:01;2.70;99.90
44695;DHT22;32845;59.422;17.930;2023-03-25T00:29:32;2.60;99.90
44695;DHT22;32845;59.422;17.930;2023-03-25T00:34:03;2.60;99.90
44695;DHT22;32845;59.422;17.930;2023-03-25T00:38:34;2.50;99.90
44695;DHT22;32845;59.422;17.930;2023-03-25T00:43:07;2.40;99.90
44695;DHT22;32845;59.422;17.930;2023-03-25T00:47:37;2.40;99.90
44695;DHT22;32845;59.422;17.930;2023-03-25T00:52:08;2.30;99.90
44695;DHT22;32845;59.422;17.930;2023-03-25T00:56:39;2.30;99.90
44695;DHT22;32845;59.422;17.930;2023-03-25T01:01:11;2.30;99.90
44695;DHT22;32845;59.422;17.930;2023-03-25T01:05:42;2.20;99.90
44695;DHT22;32845;59.422;17.930;2023-03-25T01:10:13;2.20;99.90
44695;DHT22;32845;59.422;17.930;2023-03-25T01:14:44;2.10;99.90
44695;DHT22;32845;59.422;17.930;2023-03-25T01:19:15;2.10;99.90
44695;DHT22;32845;59.422;17.930;2023-03-25T01:23:45;2.10;99.90
44695;DHT22;32845;59.422;17.930;2023-03-25T01:28:16;2.00;99.90
44695;DHT22;32845;59.422;17.930;2023-03-25T01:32:47;2.00;99.90
44695;DHT22;32845;59.422;17.930;2023-03-25T01:37:17;2.00;99.90
44695;DHT22;32845;59.422;17.930;2023-03-25T01:41:49;1.90;99.90
44695;DHT22;32845;59.422;17.930;2023-03-25T01:46:20;1.90;99.90
44695;DHT22;32845;59.422;17.930;2023-03-25T01:51:13;1.90;99.90
44695;DHT22;32845;59.422;17.930;2023-03-25T01:55:45;1.90;99.90
44695;DHT22;32845;59.422;17.930;2023-03-25T02:00:17;1.80;99.90
44695;DHT22;32845;59.422;17.930;2023-03-25T02:04:56;1.90;99.90
44695;DHT22;32845;59.422;17.930;2023-03-25T02:09:32;1.80;99.90
44695;DHT22;32845;59.422;17.930;2023-03-25T02:14:07;1.80;99.90
44695;DHT22;32845;59.422;17.930;2023-03-25T02:18:42;1.70;99.90
44695;DHT22;32845;59.422;17.930;2023-03-25T02:46:33;1.40;99.90
44695;DHT22;32845;59.422;17.930;2023-03-25T02:51:11;1.30;99.90
44695;DHT22;32845;59.422;17.930;2023-03-25T02:55:45;1.20;99.90
44695;DHT22;32845;59.422;17.930;2023-03-25T03:00:21;1.20;99.90
44695;DHT22;32845;59.422;17.930;2023-03-25T03:04:55;1.30;99.90
44695;DHT22;32845;59.422;17.930;2023-03-25T03:09:38;1.30;99.90
44695;DHT22;32845;59.422;17.930;2023-03-25T03:24:33;1.30;99.90
44695;DHT22;32845;59.422;17.930;2023-03-25T03:29:20;1.20;99.90
44695;DHT22;32845;59.422;17.930;2023-03-25T03:34:00;1.20;99.90
44695;DHT22;32845;59.422;17.930;2023-03-25T03:38:42;1.20;99.90
44695;DHT22;32845;59.422;17.930;2023-03-25T03:43:27;1.10;99.90
44695;DHT22;32845;59.422;17.930;2023-03-25T03:48:03;1.10;99.90
44695;DHT22;32845;59.422;17.930;2023-03-25T03:52:41;1.00;99.90
44695;DHT22;32845;59.422;17.930;2023-03-25T03:57:34;1.00;99.90
44695;DHT22;32845;59.422;17.930;2023-03-25T04:02:41;1.00;99.90
44695;DHT22;32845;59.422;17.930;2023-03-25T04:07:17;1.00;99.90
44695;DHT22;32845;59.422;17.930;2023-03-25T04:12:02;1.00;99.90
44695;DHT22;32845;59.422;17.930;2023-03-25T04:16:34;1.00;99.90
44695;DHT22;32845;59.422;17.930;2023-03-25T04:21:07;1.00;99.90
44695;DHT22;32845;59.422;17.930;2023-03-25T04:25:39;1.00;99.90
44695;DHT22;32845;59.422;17.930;2023-03-25T04:30:13;1.00;99.90
44695;DHT22;32845;59.422;17.930;2023-03-25T04:34:44;1.00;99.90
44695;DHT22;32845;59.422;17.930;2023-03-25T04:39:16;0.90;99.90
44695;DHT22;32845;59.422;17.930;2023-03-25T04:43:47;1.00;99.90
44695;DHT22;32845;59.422;17.930;2023-03-25T04:48:22;0.90;99.90
44695;DHT22;32845;59.422;17.930;2023-03-25T04:52:55;0.90;99.90
44695;DHT22;32845;59.422;17.930;2023-03-25T04:57:32;0.90;99.90
44695;DHT22;32845;59.422;17.930;2023-03-25T05:02:03;0.90;99.90
44695;DHT22;32845;59.422;17.930;2023-03-25T05:06:45;0.90;99.90
44695;DHT22;32845;59.422;17.930;2023-03-25T05:11:16;0.80;99.90
44695;DHT22;32845;59.422;17.930;2023-03-25T05:15:47;0.80;99.90
44695;DHT22;32845;59.422;17.930;2023-03-25T05:20:17;0.80;99.90
44695;DHT22;32845;59.422;17.930;2023-03-25T05:24:48;0.80;99.90
44695;DHT22;32845;59.422;17.930;2023-03-25T05:29:22;0.80;99.90
44695;DHT22;32845;59.422;17.930;2023-03-25T05:33:53;0.80;99.90
44695;DHT22;32845;59.422;17.930;2023-03-25T05:38:24;0.90;99.90
44695;DHT22;32845;59.422;17.930;2023-03-25T05:42:55;0.80;99.90
44695;DHT22;32845;59.422;17.930;2023-03-25T05:47:26;0.80;99.90
44695;DHT22;32845;59.422;17.930;2023-03-25T05:51:58;0.90;99.90
44695;DHT22;32845;59.422;17.930;2023-03-25T05:56:29;0.80;99.90
44695;DHT22;32845;59.422;17.930;2023-03-25T06:01:00;0.80;99.90
44695;DHT22;32845;59.422;17.930;2023-03-25T06:05:32;0.80;99.90
44695;DHT22;32845;59.422;17.930;2023-03-25T06:10:04;0.80;99.90
44695;DHT22;32845;59.422;17.930;2023-03-25T06:14:34;0.80;99.90
44695;DHT22;32845;59.422;17.930;2023-03-25T06:19:05;0.80;99.90
44695;DHT22;32845;59.422;17.930;2023-03-25T06:23:38;0.80;99.90
44695;DHT22;32845;59.422;17.930;2023-03-25T06:28:09;0.80;99.90
44695;DHT22;32845;59.422;17.930;2023-03-25T06:32:40;0.80;99.90
44695;DHT22;32845;59.422;17.930;2023-03-25T06:37:10;0.80;99.90
44695;DHT22;32845;59.422;17.930;2023-03-25T06:41:41;0.90;99.90
44695;DHT22;32845;59.422;17.930;2023-03-25T06:46:12;1.00;99.90
44695;DHT22;32845;59.422;17.930;2023-03-25T06:50:43;1.00;99.90
44695;DHT22;32845;59.422;17.930;2023-03-25T06:55:15;1.00;99.90
44695;DHT22;32845;59.422;17.930;2023-03-25T06:59:45;0.90;99.90
44695;DHT22;32845;59.422;17.930;2023-03-25T07:04:17;0.90;99.90
44695;DHT22;32845;59.422;17.930;2023-03-25T07:08:48;0.90;99.90
44695;DHT22;32845;59.422;17.930;2023-03-25T07:13:19;1.00;99.90
44695;DHT22;32845;59.422;17.930;2023-03-25T07:17:50;0.90;99.90
44695;DHT22;32845;59.422;17.930;2023-03-25T07:22:21;1.00;99.90
44695;DHT22;32845;59.422;17.930;2023-03-25T07:26:51;1.10;99.90
44695;DHT22;32845;59.422;17.930;2023-03-25T07:31:22;1.20;99.90
44695;DHT22;32845;59.422;17.930;2023-03-25T07:35:52;1.30;99.90
44695;DHT22;32845;59.422;17.930;2023-03-25T07:40:23;1.40;99.90
44695;DHT22;32845;59.422;17.930;2023-03-25T07:44:54;1.50;99.90
44695;DHT22;32845;59.422;17.930;2023-03-25T07:49:24;1.50;99.90
44695;DHT22;32845;59.422;17.930;2023-03-25T07:53:55;1.50;99.90
44695;DHT22;32845;59.422;17.930;2023-03-25T07:58:26;1.50;99.90
44695;DHT22;32845;59.422;17.930;2023-03-25T08:02:57;1.60;99.90
44695;DHT22;32845;59.422;17.930;2023-03-25T08:07:27;1.50;99.90
44695;DHT22;32845;59.422;17.930;2023-03-25T08:11:58;1.60;99.90
44695;DHT22;32845;59.422;17.930;2023-03-25T08:16:29;1.60;99.90
44695;DHT22;32845;59.422;17.930;2023-03-25T08:20:59;1.50;99.90
44695;DHT22;32845;59.422;17.930;2023-03-25T08:25:30;1.40;99.90
44695;DHT22;32845;59.422;17.930;2023-03-25T08:30:01;1.40;99.90
44695;DHT22;32845;59.422;17.930;2023-03-25T08:34:32;1.40;99.90
44695;DHT22;32845;59.422;17.930;2023-03-25T08:39:09;1.50;99.90
44695;DHT22;32845;59.422;17.930;2023-03-25T08:43:41;1.50;99.90
44695;DHT22;32845;59.422;17.930;2023-03-25T08:48:11;1.50;99.90
44695;DHT22;32845;59.422;17.930;2023-03-25T08:52:42;1.50;99.90
44695;DHT22;32845;59.422;17.930;2023-03-25T08:57:13;1.60;99.90
44695;DHT22;32845;59.422;17.930;2023-03-25T09:01:43;1.60;99.90
44695;DHT22;32845;59.422;17.930;2023-03-25T09:06:14;1.60;99.90
44695;DHT22;32845;59.422;17.930;2023-03-25T09:10:45;1.60;99.90
44695;DHT22;32845;59.422;17.930;2023-03-25T09:15:15;1.60;99.90
44695;DHT22;32845;59.422;17.930;2023-03-25T09:19:46;1.70;99.90
44695;DHT22;32845;59.422;17.930;2023-03-25T09:24:17;1.70;99.90
44695;DHT22;32845;59.422;17.930;2023-03-25T09:28:48;1.70;99.90
44695;DHT22;32845;59.422;17.930;2023-03-25T09:33:19;1.70;99.90
44695;DHT22;32845;59.422;17.930;2023-03-25T09:37:49;1.70;99.90
44695;DHT22;32845;59.422;17.930;2023-03-25T09:47:08;1.60;99.90
44695;DHT22;32845;59.422;17.930;2023-03-25T09:51:42;1.60;99.90
44695;DHT22;32845;59.422;17.930;2023-03-25T09:56:20;1.60;99.90
44695;DHT22;32845;59.422;17.930;2023-03-25T10:10:31;1.50;99.90
44695;DHT22;32845;59.422;17.930;2023-03-25T10:20:09;1.50;99.90
44695;DHT22;32845;59.422;17.930;2023-03-25T10:25:04;1.50;99.90
44695;DHT22;32845;59.422;17.930;2023-03-25T10:34:16;1.40;99.90
44695;DHT22;32845;59.422;17.930;2023-03-25T10:38:52;1.40;99.90
44695;DHT22;32845;59.422;17.930;2023-03-25T10:43:33;1.40;99.90
44695;DHT22;32845;59.422;17.930;2023-03-25T10:48:15;1.40;99.90
44695;DHT22;32845;59.422;17.930;2023-03-25T10:52:48;1.30;99.90
44695;DHT22;32845;59.422;17.930;2023-03-25T10:57:28;1.20;99.90
44695;DHT22;32845;59.422;17.930;2023-03-25T11:02:10;1.10;99.90
44695;DHT22;32845;59.422;17.930;2023-03-25T11:06:45;1.00;99.90
44695;DHT22;32845;59.422;17.930;2023-03-25T11:11:16;1.00;99.90
44695;DHT22;32845;59.422;17.930;2023-03-25T11:15:47;1.00;99.90
44695;DHT22;32845;59.422;17.930;2023-03-25T11:20:27;0.90;99.90
44695;DHT22;32845;59.422;17.930;2023-03-25T11:25:02;0.90;99.90
44695;DHT22;32845;59.422;17.930;2023-03-25T11:29:34;0.80;99.90
44695;DHT22;32845;59.422;17.930;2023-03-25T11:34:16;0.70;99.90
44695;DHT22;32845;59.422;17.930;2023-03-25T11:38:57;0.80;99.90
44695;DHT22;32845;59.422;17.930;2023-03-25T11:43:34;0.80;99.90
44695;DHT22;32845;59.422;17.930;2023-03-25T11:48:13;0.90;99.90
44695;DHT22;32845;59.422;17.930;2023-03-25T11:52:46;0.90;99.90
44695;DHT22;32845;59.422;17.930;2023-03-25T11:57:25;0.90;99.90
44695;DHT22;32845;59.422;17.930;2023-03-25T12:02:02;1.00;99.90
44695;DHT22;32845;59.422;17.930;2023-03-25T12:07:06;1.00;99.90
44695;DHT22;32845;59.422;17.930;2023-03-25T12:17:04;1.10;99.90
44695;DHT22;32845;59.422;17.930;2023-03-25T12:26:32;1.20;99.90
44695;DHT22;32845;59.422;17.930;2023-03-25T13:10:26;1.40;99.90
44695;DHT22;32845;59.422;17.930;2023-03-25T13:15:04;1.40;99.90
44695;DHT22;32845;59.422;17.930;2023-03-25T13:19:37;1.40;99.90
44695;DHT22;32845;59.422;17.930;2023-03-25T13:24:19;1.40;99.90
44695;DHT22;32845;59.422;17.930;2023-03-25T13:29:23;1.40;99.90
44695;DHT22;32845;59.422;17.930;2023-03-25T13:38:49;1.40;99.90
44695;DHT22;32845;59.422;17.930;2023-03-25T13:43:39;1.40;99.90
44695;DHT22;32845;59.422;17.930;2023-03-25T13:48:31;1.30;99.90
44695;DHT22;32845;59.422;17.930;2023-03-25T13:53:18;1.30;99.90
44695;DHT22;32845;59.422;17.930;2023-03-25T14:16:59;1.30;99.90
44695;DHT22;32845;59.422;17.930;2023-03-25T14:21:41;1.30;99.90
44695;DHT22;32845;59.422;17.930;2023-03-25T14:26:16;1.20;99.90
44695;DHT22;32845;59.422;17.930;2023-03-25T14:31:16;1.20;99.90
44695;DHT22;32845;59.422;17.930;2023-03-25T14:35:55;1.10;99.90
44695;DHT22;32845;59.422;17.930;2023-03-25T14:54:54;1.20;99.90
44695;DHT22;32845;59.422;17.930;2023-03-25T14:59:50;1.10;99.90
44695;DHT22;32845;59.422;17.930;2023-03-25T15:04:38;1.10;99.90
44695;DHT22;32845;59.422;17.930;2023-03-25T15:09:11;1.10;99.90
44695;DHT22;32845;59.422;17.930;2023-03-25T15:13:49;1.20;99.90
44695;DHT22;32845;59.422;17.930;2023-03-25T15:58:22;0.90;99.90
44695;DHT22;32845;59.422;17.930;2023-03-25T16:07:34;0.80;99.90
44695;DHT22;32845;59.422;17.930;2023-03-25T16:12:08;0.80;99.90
44695;DHT22;32845;59.422;17.930;2023-03-25T16:17:05;0.80;99.90
44695;DHT22;32845;59.422;17.930;2023-03-25T16:21:37;0.70;99.90
44695;DHT22;32845;59.422;17.930;2023-03-25T16:26:11;0.70;99.90
44695;DHT22;32845;59.422;17.930;2023-03-25T16:30:49;0.70;99.90
44695;DHT22;32845;59.422;17.930;2023-03-25T16:35:26;0.60;99.90
44695;DHT22;32845;59.422;17.930;2023-03-25T16:39:57;0.60;99.90
44695;DHT22;32845;59.422;17.930;2023-03-25T16:44:28;0.60;99.90
44695;DHT22;32845;59.422;17.930;2023-03-25T16:49:05;0.50;99.90
44695;DHT22;32845;59.422;17.930;2023-03-25T16:53:37;0.50;99.90
44695;DHT22;32845;59.422;17.930;2023-03-25T16:58:20;0.40;99.90
44695;DHT22;32845;59.422;17.930;2023-03-25T17:02:51;0.40;99.90
44695;DHT22;32845;59.422;17.930;2023-03-25T17:07:25;0.40;99.90
44695;DHT22;32845;59.422;17.930;2023-03-25T17:11:57;0.30;99.90
44695;DHT22;32845;59.422;17.930;2023-03-25T17:16:31;0.30;99.90
44695;DHT22;32845;59.422;17.930;2023-03-25T17:21:07;0.20;99.90
44695;DHT22;32845;59.422;17.930;2023-03-25T17:25:56;0.20;99.90
44695;DHT22;32845;59.422;17.930;2023-03-25T17:30:37;0.20;99.90
44695;DHT22;32845;59.422;17.930;2023-03-25T17:35:18;0.20;99.90
44695;DHT22;32845;59.422;17.930;2023-03-25T17:39:50;0.20;99.90
44695;DHT22;32845;59.422;17.930;2023-03-25T17:44:21;0.20;99.90
44695;DHT22;32845;59.422;17.930;2023-03-25T17:48:52;0.20;99.90
44695;DHT22;32845;59.422;17.930;2023-03-25T17:53:26;0.10;99.90
44695;DHT22;32845;59.422;17.930;2023-03-25T17:57:57;0.10;99.90
44695;DHT22;32845;59.422;17.930;2023-03-25T18:02:28;0.10;99.90
44695;DHT22;32845;59.422;17.930;2023-03-25T18:06:58;0.10;99.90
44695;DHT22;32845;59.422;17.930;2023-03-25T18:11:30;0.10;99.90
44695;DHT22;32845;59.422;17.930;2023-03-25T18:16:00;0.10;99.90
44695;DHT22;32845;59.422;17.930;2023-03-25T18:20:34;0.00;99.90
44695;DHT22;32845;59.422;17.930;2023-03-25T18:25:05;0.00;99.90
44695;DHT22;32845;59.422;17.930;2023-03-25T18:29:36;0.00;99.90
44695;DHT22;32845;59.422;17.930;2023-03-25T18:34:09;0.00;99.90
44695;DHT22;32845;59.422;17.930;2023-03-25T18:38:42;0.00;99.90
44695;DHT22;32845;59.422;17.930;2023-03-25T18:43:13;-0.10;99.90
44695;DHT22;32845;59.422;17.930;2023-03-25T18:47:46;-0.10;99.90
44695;DHT22;32845;59.422;17.930;2023-03-25T18:52:17;-0.20;99.90
44695;DHT22;32845;59.422;17.930;2023-03-25T18:56:48;-0.20;99.90
44695;DHT22;32845;59.422;17.930;2023-03-25T19:01:18;-0.20;99.90
44695;DHT22;32845;59.422;17.930;2023-03-25T19:05:50;-0.20;99.90
44695;DHT22;32845;59.422;17.930;2023-03-25T19:10:27;-0.20;99.90
44695;DHT22;32845;59.422;17.930;2023-03-25T19:14:58;-0.20;99.90
44695;DHT22;32845;59.422;17.930;2023-03-25T19:19:29;-0.20;99.90
44695;DHT22;32845;59.422;17.930;2023-03-25T19:23:59;-0.20;99.90
44695;DHT22;32845;59.422;17.930;2023-03-25T19:28:30;-0.30;99.90
44695;DHT22;32845;59.422;17.930;2023-03-25T19:33:01;-0.30;99.90
44695;DHT22;32845;59.422;17.930;2023-03-25T19:37:33;-0.40;99.90
44695;DHT22;32845;59.422;17.930;2023-03-25T19:42:04;-0.40;99.90
44695;DHT22;32845;59.422;17.930;2023-03-25T19:46:35;-0.40;99.90
44695;DHT22;32845;59.422;17.930;2023-03-25T19:51:06;-0.40;99.90
44695;DHT22;32845;59.422;17.930;2023-03-25T19:55:41;-0.40;99.90
44695;DHT22;32845;59.422;17.930;2023-03-25T20:00:18;-0.40;99.90
44695;DHT22;32845;59.422;17.930;2023-03-25T20:04:50;-0.50;99.90
44695;DHT22;32845;59.422;17.930;2023-03-25T20:09:21;-0.50;99.90
44695;DHT22;32845;59.422;17.930;2023-03-25T20:13:52;-0.50;99.90
44695;DHT22;32845;59.422;17.930;2023-03-25T20:18:24;-0.50;99.90
44695;DHT22;32845;59.422;17.930;2023-03-25T20:22:54;-0.50;99.90
44695;DHT22;32845;59.422;17.930;2023-03-25T20:27:25;-0.50;99.90
44695;DHT22;32845;59.422;17.930;2023-03-25T20:31:56;-0.60;99.90
44695;DHT22;32845;59.422;17.930;2023-03-25T20:36:27;-0.60;99.90
44695;DHT22;32845;59.422;17.930;2023-03-25T20:40:58;-0.60;99.90
44695;DHT22;32845;59.422;17.930;2023-03-25T20:45:29;-0.60;99.90
44695;DHT22;32845;59.422;17.930;2023-03-25T20:50:00;-0.60;99.90
44695;DHT22;32845;59.422;17.930;2023-03-25T20:54:30;-0.70;99.90
44695;DHT22;32845;59.422;17.930;2023-03-25T20:59:01;-0.70;99.90
44695;DHT22;32845;59.422;17.930;2023-03-25T21:03:32;-0.70;99.90
44695;DHT22;32845;59.422;17.930;2023-03-25T21:08:03;-0.70;99.90
44695;DHT22;32845;59.422;17.930;2023-03-25T21:12:34;-0.70;99.90
44695;DHT22;32845;59.422;17.930;2023-03-25T21:17:06;-0.70;99.90
44695;DHT22;32845;59.422;17.930;2023-03-25T21:21:37;-0.80;99.90
44695;DHT22;32845;59.422;17.930;2023-03-25T21:26:08;-0.80;99.90
44695;DHT22;32845;59.422;17.930;2023-03-25T21:30:39;-0.80;99.90
44695;DHT22;32845;59.422;17.930;2023-03-25T21:35:10;-0.80;99.90
44695;DHT22;32845;59.422;17.930;2023-03-25T21:39:41;-0.80;99.90
44695;DHT22;32845;59.422;17.930;2023-03-25T21:44:12;-0.90;99.90
44695;DHT22;32845;59.422;17.930;2023-03-25T21:48:45;-0.90;99.90
44695;DHT22;32845;59.422;17.930;2023-03-25T21:53:17;-0.90;99.90
44695;DHT22;32845;59.422;17.930;2023-03-25T21:57:51;-0.90;99.90
44695;DHT22;32845;59.422;17.930;2023-03-25T22:02:22;-0.90;99.90
44695;DHT22;32845;59.422;17.930;2023-03-25T22:06:54;-1.00;99.90
44695;DHT22;32845;59.422;17.930;2023-03-25T22:11:27;-1.00;99.90
44695;DHT22;32845;59.422;17.930;2023-03-25T22:16:03;-1.00;99.90
44695;DHT22;32845;59.422;17.930;2023-03-25T22:20:34;-1.00;99.90
44695;DHT22;32845;59.422;17.930;2023-03-25T22:25:06;-1.00;99.90
44695;DHT22;32845;59.422;17.930;2023-03-25T22:29:37;-1.00;99.90
44695;DHT22;32845;59.422;17.930;2023-03-25T22:34:13;-1.00;99.90
44695;DHT22;32845;59.422;17.930;2023-03-25T22:38:46;-1.00;99.90
44695;DHT22;32845;59.422;17.930;2023-03-25T22:43:16;-1.00;99.90
44695;DHT22;32845;59.422;17.930;2023-03-25T22:47:47;-1.00;99.90
44695;DHT22;32845;59.422;17.930;2023-03-25T22:52:18;-1.00;99.90
44695;DHT22;32845;59.422;17.930;2023-03-25T22:56:48;-1.00;99.90
44695;DHT22;32845;59.422;17.930;2023-03-25T23:01:24;-1.00;99.90
44695;DHT22;32845;59.422;17.930;2023-03-25T23:06:01;-1.00;99.90
44695;DHT22;32845;59.422;17.930;2023-03-25T23:10:33;-1.00;99.90
44695;DHT22;32845;59.422;17.930;2023-03-25T23:15:04;-1.00;99.90
44695;DHT22;32845;59.422;17.930;2023-03-25T23:19:35;-1.10;99.90
44695;DHT22;32845;59.422;17.930;2023-03-25T23:24:06;-1.10;99.90
44695;DHT22;32845;59.422;17.930;2023-03-25T23:28:37;-1.10;99.90
44695;DHT22;32845;59.422;17.930;2023-03-25T23:33:07;-1.10;99.90
44695;DHT22;32845;59.422;17.930;2023-03-25T23:37:38;-1.00;99.90
44695;DHT22;32845;59.422;17.930;2023-03-25T23:42:11;-1.10;99.90
44695;DHT22;32845;59.422;17.930;2023-03-25T23:46:42;-1.10;99.90
44695;DHT22;32845;59.422;17.930;2023-03-25T23:51:17;-1.10;99.90
44695;DHT22;32845;59.422;17.930;2023-03-25T23:55:51;-1.10;99.90
